Time;durP1;ratioP1;P1;durP2;ratioP2;P2;SDS_P1;SDS_P2;PMS_P1;PMS_P2;Temp;Humidity;BMP_temperature;BMP_pressure;BME280_temperature;BME280_humidity;BME280_pressure;Samples;Min_cycle;Max_cycle;Signal;HPM_P1;HPM_P2
2022/01/13 00:01:16;;;;;;;37.00;9.57;;;;;;;3.09;62.83;103761.03;5025124;28;20037;-74
2022/01/13 00:03:42;;;;;;;45.55;8.35;;;;;;;3.47;61.94;103761.59;5032916;28;20040;-73
2022/01/13 00:06:07;;;;;;;41.53;9.32;;;;;;;3.16;62.89;103763.91;5051788;28;20032;-73
2022/01/13 00:08:33;;;;;;;34.55;9.38;;;;;;;3.29;62.69;103774.72;5034549;28;20105;-74
2022/01/13 00:10:58;;;;;;;37.35;11.18;;;;;;;3.75;61.15;103777.25;5053075;28;20040;-75
2022/01/13 00:13:31;;;;;;;35.75;10.95;;;;;;;3.57;61.61;103772.31;5037582;28;20071;-74
2022/01/13 00:18:49;;;;;;;36.50;11.13;;;;;;;3.41;62.27;103777.78;5028623;28;20063;-75
2022/01/13 00:23:50;;;;;;;46.08;12.02;;;;;;;3.25;62.90;103783.16;5051619;28;20033;-75
2022/01/13 00:26:20;;;;;;;44.08;12.52;;;;;;;3.35;62.33;103778.41;5054156;28;20102;-74
2022/01/13 00:28:51;;;;;;;50.92;14.73;;;;;;;3.24;62.43;103779.69;5037870;28;20040;-74
2022/01/13 00:31:25;;;;;;;48.90;14.32;;;;;;;3.48;62.18;103769.41;5032169;28;20041;-74
2022/01/13 00:33:54;;;;;;;49.55;14.65;;;;;;;3.62;61.99;103779.38;5014813;28;20054;-74
2022/01/13 00:36:21;;;;;;;44.05;14.32;;;;;;;3.91;60.68;103778.66;5049091;28;20033;-75
2022/01/13 00:38:47;;;;;;;46.58;15.40;;;;;;;3.63;61.47;103776.84;5055705;28;20044;-74
2022/01/13 00:41:15;;;;;;;58.55;15.35;;;;;;;3.29;62.61;103779.91;5038072;28;20154;-74
2022/01/13 00:43:42;;;;;;;46.45;13.73;;;;;;;3.61;62.13;103778.50;5038727;28;20063;-74
2022/01/13 00:46:09;;;;;;;43.55;13.35;;;;;;;3.73;61.32;103785.81;5055723;28;20402;-73
2022/01/13 00:48:35;;;;;;;45.20;13.93;;;;;;;3.44;62.29;103788.22;5052556;28;20845;-74
2022/01/13 00:51:00;;;;;;;47.65;12.57;;;;;;;3.12;63.25;103782.72;5051812;28;20038;-75
2022/01/13 00:53:26;;;;;;;63.10;12.60;;;;;;;4.01;60.86;103773.00;5030841;28;20059;-74
2022/01/13 00:55:59;;;;;;;49.60;13.50;;;;;;;3.80;61.17;103774.84;5035007;28;20517;-75
2022/01/13 00:58:30;;;;;;;41.08;14.68;;;;;;;4.13;60.62;103769.06;5037369;28;20059;-74
2022/01/13 01:00:57;;;;;;;42.70;14.30;;;;;;;3.87;60.65;103766.44;5039303;28;20028;-74
2022/01/13 01:03:23;;;;;;;45.05;13.75;;;;;;;4.06;60.32;103762.78;5044132;28;20732;-75
2022/01/13 01:05:49;;;;;;;59.30;13.75;;;;;;;3.47;61.80;103775.41;5053567;28;20033;-75
2022/01/13 01:08:15;;;;;;;44.75;13.52;;;;;;;3.48;62.05;103768.53;5051113;28;20047;-74
2022/01/13 01:10:44;;;;;;;48.13;14.82;;;;;;;3.35;62.10;103755.16;5036250;28;20089;-74
2022/01/13 01:13:16;;;;;;;51.10;14.18;;;;;;;3.17;63.22;103770.81;5020058;28;20040;-74
2022/01/13 01:15:46;;;;;;;57.08;14.07;;;;;;;3.18;63.44;103757.09;5053072;28;20041;-74
2022/01/13 01:21:17;;;;;;;60.60;14.57;;;;;;;3.86;61.29;103751.75;5055465;28;20122;-75
2022/01/13 01:24:08;;;;;;;49.88;13.15;;;;;;;3.56;61.46;103759.31;5026850;28;20411;-74
2022/01/13 01:29:13;;;;;;;46.75;13.45;;;;;;;3.86;61.08;103769.88;5037813;28;20037;-72
2022/01/13 01:31:47;;;;;;;52.63;13.40;;;;;;;3.72;61.75;103776.28;5030320;28;20394;-72
2022/01/13 01:36:49;;;;;;;47.53;12.07;;;;;;;3.79;61.50;103762.75;5038205;28;20036;-72
2022/01/13 01:39:15;;;;;;;49.80;13.23;;;;;;;3.80;61.79;103757.59;5022304;28;20036;-73
2022/01/13 01:41:47;;;;;;;44.33;13.65;;;;;;;3.39;62.84;103762.19;5029752;28;20035;-72
2022/01/13 01:44:39;;;;;;;44.72;12.65;;;;;;;3.66;62.08;103765.72;5051136;28;20481;-72
2022/01/13 01:47:08;;;;;;;42.88;12.45;;;;;;;3.48;62.46;103760.78;5050848;28;20101;-72
2022/01/13 01:49:39;;;;;;;35.75;12.18;;;;;;;3.66;62.24;103755.38;5037501;28;20793;-72
2022/01/13 01:52:06;;;;;;;41.70;10.15;;;;;;;3.26;63.37;103756.50;5000113;28;20051;-72
2022/01/13 01:54:35;;;;;;;37.70;11.90;;;;;;;3.76;61.90;103748.00;5027708;28;20116;-73
2022/01/13 01:57:01;;;;;;;45.83;12.70;;;;;;;3.56;62.37;103749.88;5017536;28;20027;-72
2022/01/13 01:59:30;;;;;;;43.15;12.27;;;;;;;3.54;62.22;103742.91;5036961;28;20450;-75
2022/01/13 02:01:57;;;;;;;37.45;12.05;;;;;;;3.66;62.08;103742.44;5052358;28;20040;-75
2022/01/13 02:04:25;;;;;;;36.97;11.02;;;;;;;3.56;62.12;103747.31;5052318;28;20229;-74
2022/01/13 02:06:56;;;;;;;41.50;12.32;;;;;;;3.71;61.84;103748.66;5032324;28;20043;-72
2022/01/13 02:09:22;;;;;;;42.33;12.18;;;;;;;4.09;60.96;103743.91;5041034;28;20069;-74
2022/01/13 02:11:55;;;;;;;37.85;12.00;;;;;;;4.18;60.95;103736.44;5022247;28;20029;-73
2022/01/13 02:16:51;;;;;;;40.75;12.65;;;;;;;3.91;61.58;103729.50;5041371;28;20029;-72
2022/01/13 02:19:23;;;;;;;39.33;10.13;;;;;;;4.14;60.06;103719.03;5039941;28;20033;-72
2022/01/13 02:21:49;;;;;;;42.38;13.57;;;;;;;3.31;63.37;103711.91;5047439;28;20040;-71
2022/01/13 02:24:14;;;;;;;42.63;11.55;;;;;;;3.45;62.52;103715.00;5050805;28;20036;-71
2022/01/13 02:26:40;;;;;;;49.40;13.23;;;;;;;3.80;61.56;103717.91;5049907;28;20056;-71
2022/01/13 02:29:05;;;;;;;44.90;13.35;;;;;;;3.64;62.27;103726.00;5052055;28;20033;-71
2022/01/13 02:31:30;;;;;;;36.80;10.32;;;;;;;3.77;60.78;103726.47;5032483;28;20036;-71
2022/01/13 02:33:56;;;;;;;30.55;10.98;;;;;;;3.67;61.19;103727.00;5015563;28;20038;-71
2022/01/13 02:36:23;;;;;;;27.33;9.85;;;;;;;3.45;61.87;103720.19;5052600;28;20086;-71
2022/01/13 02:38:55;;;;;;;33.08;10.88;;;;;;;3.27;62.66;103724.63;5043605;28;20560;-73
2022/01/13 02:41:23;;;;;;;;;;;;;;;3.84;60.73;103730.13;5030242;28;20056;-73
2022/01/13 02:43:53;;;;;;;31.05;10.75;;;;;;;3.35;62.58;103720.66;5040743;28;19921;-74
2022/01/13 02:47:04;;;;;;;30.10;12.02;;;;;;;4.09;60.11;103723.19;5028770;28;20155;-73
2022/01/13 02:49:21;;;;;;;38.78;12.02;;;;;;;3.84;61.23;103730.13;5040300;28;20407;-75
2022/01/13 02:51:53;;;;;;;31.77;11.32;;;;;;;3.59;61.04;103728.41;5035139;28;20036;-73
2022/01/13 02:54:22;;;;;;;37.85;13.18;;;;;;;3.74;60.23;103722.91;5049819;28;20089;-73
2022/01/13 02:56:48;;;;;;;33.88;11.82;;;;;;;3.74;60.76;103726.38;5038916;28;20398;-73
2022/01/13 02:59:15;;;;;;;29.58;10.85;;;;;;;3.06;62.76;103720.44;5050436;28;20044;-73
2022/01/13 03:01:41;;;;;;;30.40;11.00;;;;;;;3.69;60.56;103720.13;5027585;28;20033;-73
2022/01/13 03:04:08;;;;;;;36.85;11.75;;;;;;;3.21;62.40;103714.09;5037222;28;20495;-72
2022/01/13 03:06:38;;;;;;;34.53;10.63;;;;;;;3.29;61.57;103712.69;5035333;28;20036;-72
2022/01/13 03:09:06;;;;;;;36.47;11.43;;;;;;;3.16;62.36;103712.22;5056246;28;20493;-73
2022/01/13 03:11:36;;;;;;;37.60;12.13;;;;;;;3.45;61.75;103707.25;5055778;28;20032;-75
2022/01/13 03:14:04;;;;;;;37.65;13.23;;;;;;;3.56;60.87;103702.44;5056060;28;20790;-73
2022/01/13 03:16:30;;;;;;;37.75;12.68;;;;;;;3.31;61.18;103700.69;5056860;28;20032;-73
2022/01/13 03:18:58;;;;;;;34.35;11.32;;;;;;;3.59;60.42;103687.91;4996658;28;20041;-73
2022/01/13 03:21:23;;;;;;;35.92;12.43;;;;;;;3.36;61.60;103692.28;5056589;28;20090;-74
2022/01/13 03:23:50;;;;;;;40.80;13.55;;;;;;;3.82;59.54;103690.38;5052199;28;20036;-74
2022/01/13 03:26:21;;;;;;;35.78;11.27;;;;;;;2.67;62.69;103699.19;5031777;28;20028;-74
2022/01/13 03:29:05;;;;;;;34.40;12.77;;;;;;;3.39;60.62;103697.56;5021246;28;20506;-75
2022/01/13 03:31:31;;;;;;;40.95;12.15;;;;;;;3.64;60.37;103706.16;5020064;28;20029;-74
2022/01/13 03:33:57;;;;;;;29.42;12.55;;;;;;;3.19;61.42;103706.28;5046599;28;20045;-74
2022/01/13 03:36:23;;;;;;;40.05;13.63;;;;;;;3.66;59.80;103709.69;5041773;28;20040;-74
2022/01/13 03:38:48;;;;;;;37.22;11.35;;;;;;;3.26;61.13;103709.97;5056341;28;20089;-74
2022/01/13 03:41:14;;;;;;;37.00;11.95;;;;;;;3.40;60.81;103706.19;5056922;28;20031;-73
2022/01/13 03:43:40;;;;;;;36.38;11.90;;;;;;;3.87;59.55;103693.13;5036446;28;20040;-72
2022/01/13 03:46:10;;;;;;;30.60;11.88;;;;;;;3.27;60.95;103701.38;5039620;28;20028;-73
2022/01/13 03:48:35;;;;;;;27.98;12.38;;;;;;;3.07;61.57;103701.56;5038311;28;20029;-73
2022/01/13 03:51:01;;;;;;;41.20;11.23;;;;;;;2.88;61.96;103704.25;5048387;28;20033;-72
2022/01/13 03:53:29;;;;;;;27.88;10.95;;;;;;;3.17;61.04;103698.47;5039308;28;20028;-72
2022/01/13 03:56:16;;;;;;;26.38;10.57;;;;;;;3.03;61.21;103699.66;5045697;28;20354;-73
2022/01/13 03:59:07;;;;;;;36.50;9.73;;;;;;;3.10;61.32;103701.66;5050194;28;20036;-72
2022/01/13 04:01:58;;;;;;;31.27;11.43;;;;;;;3.06;61.51;103699.78;5036437;28;20044;-72
2022/01/13 04:04:23;;;;;;;30.15;10.20;;;;;;;2.92;61.57;103703.56;5051627;28;20570;-73
2022/01/13 04:06:49;;;;;;;33.08;10.40;;;;;;;2.85;62.12;103714.50;5037125;28;20085;-72
2022/01/13 04:09:55;;;;;;;27.95;9.50;;;;;;;3.47;60.39;103713.34;5055467;28;20036;-73
2022/01/13 04:12:23;;;;;;;37.47;10.35;;;;;;;3.30;60.32;103722.22;5054548;28;20036;-72
2022/01/13 04:14:56;;;;;;;29.80;10.95;;;;;;;3.26;60.77;103717.72;5050909;28;20024;-72
2022/01/13 04:17:23;;;;;;;32.65;12.02;;;;;;;3.28;60.73;103710.91;5007253;28;20046;-73
2022/01/13 04:19:49;;;;;;;27.60;10.70;;;;;;;2.97;61.77;103707.19;5031294;28;20039;-72
2022/01/13 04:22:19;;;;;;;30.95;9.90;;;;;;;3.25;60.65;103706.50;5048512;28;20428;-73
2022/01/13 04:24:47;;;;;;;22.67;9.18;;;;;;;3.55;59.90;103701.56;5013873;28;20123;-72
2022/01/13 04:27:24;;;;;;;27.73;10.65;;;;;;;2.57;62.48;103697.94;5005757;28;20051;-72
2022/01/13 04:30:11;;;;;;;32.03;10.65;;;;;;;2.56;62.78;103691.00;5044411;28;20033;-72
2022/01/13 04:32:36;;;;;;;42.75;13.07;;;;;;;2.87;61.61;103705.09;5052185;28;20122;-72
2022/01/13 04:35:02;;;;;;;30.92;11.27;;;;;;;3.00;61.36;103702.13;5038253;28;20143;-72
2022/01/13 04:37:27;;;;;;;34.22;10.70;;;;;;;2.94;61.96;103694.16;5023828;28;20048;-72
2022/01/13 04:39:55;;;;;;;30.00;11.45;;;;;;;2.67;62.27;103694.88;5049309;28;20017;-72
2022/01/13 04:42:20;;;;;;;29.80;10.93;;;;;;;2.82;62.21;103694.56;5051842;28;20571;-73
2022/01/13 04:44:46;;;;;;;32.92;11.48;;;;;;;2.76;62.22;103695.22;5019907;28;20679;-72
2022/01/13 04:47:11;;;;;;;32.72;11.88;;;;;;;2.81;62.08;103687.66;5052768;28;20056;-73
2022/01/13 04:49:37;;;;;;;34.40;10.85;;;;;;;3.18;60.98;103689.91;5029132;28;20037;-74
2022/01/13 04:52:03;;;;;;;30.83;10.88;;;;;;;3.36;60.55;103694.00;5044457;28;20029;-74
2022/01/13 04:54:28;;;;;;;30.00;10.95;;;;;;;2.98;61.33;103684.00;5041386;28;20233;-72
2022/01/13 04:57:14;;;;;;;32.05;10.65;;;;;;;2.72;62.48;103692.47;5038538;28;20121;-73
2022/01/13 04:59:40;;;;;;;34.53;11.73;;;;;;;3.32;60.94;103698.16;5050176;28;20029;-72
2022/01/13 05:02:06;;;;;;;36.65;12.63;;;;;;;3.34;60.59;103685.31;5053116;28;20114;-73
2022/01/13 05:04:31;;;;;;;31.27;11.07;;;;;;;3.15;61.09;103694.94;5034188;28;20021;-73
2022/01/13 05:06:56;;;;;;;36.95;12.70;;;;;;;3.47;60.07;103692.69;5051304;28;21008;-74
2022/01/13 05:09:22;;;;;;;36.40;13.75;;;;;;;3.53;60.33;103692.84;5023908;28;20033;-73
2022/01/13 05:11:47;;;;;;;33.75;11.57;;;;;;;2.81;62.46;103692.81;5017442;28;20036;-72
2022/01/13 05:14:20;;;;;;;34.30;11.27;;;;;;;3.19;61.34;103688.19;5032056;28;20037;-72
2022/01/13 05:17:01;;;;;;;37.65;12.90;;;;;;;2.83;62.52;103692.88;5024993;28;20534;-72
2022/01/13 05:20:13;;;;;;;32.23;8.90;;;;;;;2.88;62.77;103681.00;5047949;28;20033;-73
2022/01/13 05:22:18;;;;;;;20.85;7.70;;;;;;;2.87;62.89;103681.84;5040016;28;20059;-75
2022/01/13 05:24:49;;;;;;;34.88;11.63;;;;;;;2.84;62.41;103676.56;5037762;28;20049;-72
2022/01/13 05:27:19;;;;;;;46.88;12.98;;;;;;;2.62;63.14;103675.72;5031988;28;20045;-72
2022/01/13 05:29:47;;;;;;;39.22;11.80;;;;;;;2.60;63.22;103667.06;5017399;28;20031;-70
2022/01/13 05:32:12;;;;;;;39.70;12.88;;;;;;;3.14;61.72;103667.34;5049753;28;20040;-70
2022/01/13 05:34:38;;;;;;;39.00;11.98;;;;;;;3.07;62.02;103670.53;5035883;28;20033;-71
2022/01/13 05:37:03;;;;;;;34.97;12.02;;;;;;;3.43;60.97;103659.78;5032439;28;20310;-71
2022/01/13 05:39:29;;;;;;;37.97;13.85;;;;;;;3.45;60.85;103665.88;5032720;28;20124;-73
2022/01/13 05:41:54;;;;;;;43.50;12.45;;;;;;;3.07;62.07;103664.47;5028404;28;20131;-74
2022/01/13 05:44:19;;;;;;;37.85;12.70;;;;;;;3.29;61.36;103666.16;5037709;28;20545;-74
2022/01/13 05:46:45;;;;;;;40.97;12.43;;;;;;;2.97;61.90;103660.69;5039055;28;20407;-71
2022/01/13 05:49:10;;;;;;;38.88;13.32;;;;;;;3.21;61.43;103655.53;5051460;28;20025;-71
2022/01/13 05:51:36;;;;;;;39.28;12.68;;;;;;;3.34;60.92;103656.88;5042875;28;20372;-71
2022/01/13 05:54:01;;;;;;;41.13;13.70;;;;;;;3.48;60.74;103653.03;5050821;28;20037;-73
2022/01/13 05:56:27;;;;;;;57.70;12.55;;;;;;;2.97;62.34;103658.97;5053021;28;20051;-72
2022/01/13 05:58:52;;;;;;;35.83;12.18;;;;;;;3.10;61.59;103670.63;5051452;28;20045;-71
2022/01/13 06:01:18;;;;;;;41.08;12.82;;;;;;;3.23;61.71;103665.94;5051115;28;20174;-72
2022/01/13 06:03:43;;;;;;;42.72;12.45;;;;;;;3.17;62.40;103661.41;5048056;28;20056;-71
2022/01/13 06:06:09;;;;;;;41.28;13.25;;;;;;;3.30;61.66;103667.94;5036369;28;20036;-72
2022/01/13 06:08:35;;;;;;;35.92;12.75;;;;;;;3.48;60.55;103663.38;5051459;28;20033;-72
2022/01/13 06:11:05;;;;;;;36.10;12.85;;;;;;;2.48;64.89;103664.00;5033662;28;20501;-73
2022/01/13 06:13:30;;;;;;;30.67;12.52;;;;;;;3.06;63.22;103663.59;5051637;28;20471;-72
2022/01/13 06:15:56;;;;;;;32.50;12.02;;;;;;;3.08;62.95;103656.78;5019111;28;20037;-72
2022/01/13 06:18:25;;;;;;;45.30;11.65;;;;;;;2.94;63.30;103660.59;5038939;28;20094;-72
2022/01/13 06:20:52;;;;;;;34.08;11.48;;;;;;;2.86;63.93;103633.56;5035550;28;20028;-72
2022/01/13 06:23:18;;;;;;;38.85;11.55;;;;;;;2.50;64.62;103644.28;5044932;28;20718;-73
2022/01/13 06:25:44;;;;;;;43.20;12.63;;;;;;;3.11;63.20;103636.22;5027165;28;20328;-73
2022/01/13 06:28:09;;;;;;;38.72;13.48;;;;;;;3.12;63.18;103637.97;5024173;28;20067;-73
2022/01/13 06:30:37;;;;;;;34.20;10.82;;;;;;;3.07;63.40;103628.28;5036437;28;20082;-73
2022/01/13 06:33:05;;;;;;;32.20;11.63;;;;;;;3.27;62.37;103632.47;5030397;28;20337;-73
2022/01/13 06:35:30;;;;;;;46.22;13.38;;;;;;;2.74;64.25;103628.84;5037229;28;20098;-73
2022/01/13 06:37:56;;;;;;;45.38;12.48;;;;;;;3.17;62.83;103626.09;5026741;28;20043;-73
2022/01/13 06:40:21;;;;;;;44.70;12.75;;;;;;;2.89;63.54;103621.66;5030394;28;20147;-74
2022/01/13 06:42:46;;;;;;;40.95;12.10;;;;;;;3.27;62.31;103626.41;5039395;28;20084;-74
2022/01/13 06:45:13;;;;;;;38.78;12.55;;;;;;;3.38;62.55;103630.28;5033022;28;20053;-73
2022/01/13 06:47:40;;;;;;;34.85;10.88;;;;;;;3.75;61.12;103632.38;5027440;28;20516;-73
2022/01/13 06:50:16;;;;;;;48.33;12.57;;;;;;;3.41;61.78;103632.97;5017041;28;20040;-72
2022/01/13 06:52:42;;;;;;;46.13;13.27;;;;;;;2.99;63.53;103630.63;5046027;28;20044;-72
2022/01/13 06:55:09;;;;;;;37.58;12.68;;;;;;;2.97;63.14;103643.47;5032144;28;20112;-72
2022/01/13 06:57:37;;;;;;;48.55;13.95;;;;;;;2.94;64.04;103627.00;5022685;28;20396;-71
2022/01/13 07:00:03;;;;;;;47.63;12.63;;;;;;;3.39;62.62;103634.63;5019206;28;20032;-72
2022/01/13 07:02:30;;;;;;;32.08;12.02;;;;;;;2.83;64.25;103634.34;5018784;28;20144;-71
2022/01/13 07:04:56;;;;;;;49.80;13.77;;;;;;;3.05;63.50;103630.84;5050738;28;20028;-71
2022/01/13 07:07:21;;;;;;;43.60;11.18;;;;;;;2.89;63.88;103641.44;5032799;28;20036;-72
2022/01/13 07:09:47;;;;;;;63.75;13.95;;;;;;;2.73;64.69;103643.47;5041418;28;20095;-73
2022/01/13 07:12:14;;;;;;;38.90;12.07;;;;;;;2.66;65.19;103648.34;5041484;28;20101;-72
2022/01/13 07:14:40;;;;;;;45.88;14.63;;;;;;;2.97;63.73;103647.75;5034565;28;20040;-73
2022/01/13 07:17:05;;;;;;;49.33;13.25;;;;;;;2.96;63.95;103662.41;5004309;28;20045;-73
2022/01/13 07:19:31;;;;;;;37.83;12.15;;;;;;;3.44;62.30;103661.50;5044239;28;20035;-72
2022/01/13 07:21:57;;;;;;;47.72;12.98;;;;;;;3.42;62.58;103673.50;5047107;28;20028;-74
2022/01/13 07:24:22;;;;;;;40.63;12.60;;;;;;;3.37;62.85;103669.91;5021217;28;20032;-74
2022/01/13 07:26:48;;;;;;;41.75;11.70;;;;;;;3.29;63.04;103681.66;5034905;28;20246;-73
2022/01/13 07:29:13;;;;;;;58.15;13.82;;;;;;;3.46;62.09;103670.22;5036076;28;20037;-73
2022/01/13 07:31:39;;;;;;;45.20;13.48;;;;;;;3.61;61.83;103679.34;5052114;28;20069;-73
2022/01/13 07:34:05;;;;;;;39.85;12.68;;;;;;;3.62;62.12;103673.31;5035761;28;20392;-73
2022/01/13 07:36:31;;;;;;;44.22;13.45;;;;;;;3.26;63.03;103674.66;5019282;28;20078;-74
2022/01/13 07:38:57;;;;;;;43.08;13.25;;;;;;;3.56;62.13;103680.06;5051785;28;20292;-73
2022/01/13 07:41:22;;;;;;;39.50;13.10;;;;;;;3.58;62.19;103674.91;5017100;28;20086;-73
2022/01/13 07:43:53;;;;;;;45.28;13.68;;;;;;;3.57;62.05;103673.16;5016579;28;20711;-72
2022/01/13 07:46:20;;;;;;;39.40;15.73;;;;;;;3.83;61.71;103670.56;5038575;28;20037;-72
2022/01/13 07:48:45;;;;;;;48.47;14.98;;;;;;;3.66;62.10;103675.19;5053530;28;20454;-72
2022/01/13 07:51:13;;;;;;;49.28;14.18;;;;;;;3.79;61.41;103674.78;5032535;28;20312;-74
2022/01/13 07:53:39;;;;;;;39.03;14.13;;;;;;;3.62;61.97;103678.50;5031798;28;20036;-74
2022/01/13 07:56:06;;;;;;;43.03;14.20;;;;;;;3.48;62.49;103688.38;5029422;28;20127;-74
2022/01/13 07:58:34;;;;;;;41.50;15.55;;;;;;;3.34;63.34;103682.72;5020129;28;20091;-73
2022/01/13 08:01:02;;;;;;;41.88;14.60;;;;;;;3.57;62.08;103692.16;5021685;28;20025;-73
2022/01/13 08:03:28;;;;;;;46.85;14.77;;;;;;;3.82;61.30;103690.38;5025603;28;20397;-74
2022/01/13 08:05:53;;;;;;;51.58;15.75;;;;;;;3.99;60.84;103698.72;5043115;28;20184;-73
2022/01/13 08:08:21;;;;;;;38.47;12.73;;;;;;;3.45;62.37;103689.16;5055475;28;20091;-74
2022/01/13 08:10:47;;;;;;;39.47;14.27;;;;;;;3.84;61.55;103696.50;5047662;28;20031;-73
2022/01/13 08:13:12;;;;;;;40.65;13.73;;;;;;;3.89;61.68;103692.34;5035850;28;20389;-74
2022/01/13 08:15:40;;;;;;;54.95;15.48;;;;;;;3.86;61.65;103687.06;5038315;28;20420;-73
2022/01/13 08:20:49;;;;;;;47.15;14.80;;;;;;;3.87;60.97;103691.41;5049724;28;20044;-74
2022/01/13 08:23:15;;;;;;;43.30;13.25;;;;;;;4.12;60.75;103698.28;5026225;28;20037;-74
2022/01/13 08:25:40;;;;;;;49.03;15.00;;;;;;;4.05;61.01;103698.94;5006970;28;20040;-74
2022/01/13 08:28:10;;;;;;;34.83;13.20;;;;;;;3.28;63.57;103698.84;5043682;28;20482;-73
2022/01/13 08:30:36;;;;;;;40.03;13.55;;;;;;;3.56;62.09;103703.34;5054027;28;20036;-73
2022/01/13 08:33:02;;;;;;;40.83;14.98;;;;;;;3.71;62.14;103702.09;5052264;28;20503;-73
2022/01/13 08:35:27;;;;;;;48.25;14.45;;;;;;;3.83;61.88;103699.94;5035644;28;20232;-73
2022/01/13 08:37:53;;;;;;;46.65;13.35;;;;;;;4.00;61.34;103706.50;5025138;28;20052;-73
2022/01/13 08:40:19;;;;;;;44.88;15.20;;;;;;;4.05;61.35;103703.19;5031868;28;20047;-76
2022/01/13 08:42:45;;;;;;;44.67;14.38;;;;;;;3.71;62.49;103715.03;5034930;28;20103;-73
2022/01/13 08:45:12;;;;;;;47.75;14.60;;;;;;;3.61;62.15;103706.06;5021559;28;20095;-74
2022/01/13 08:47:39;;;;;;;48.30;12.85;;;;;;;3.96;61.64;103709.84;5036860;28;20040;-74
2022/01/13 08:50:07;;;;;;;40.95;12.30;;;;;;;4.42;60.34;103718.22;5036716;28;20526;-74
2022/01/13 08:52:37;;;;;;;50.97;14.68;;;;;;;4.46;59.95;103721.78;5022059;28;20040;-73
2022/01/13 08:55:05;;;;;;;37.80;12.77;;;;;;;4.31;60.22;103710.09;5046125;28;20032;-74
2022/01/13 08:57:32;;;;;;;36.17;12.50;;;;;;;4.15;61.06;103715.63;4999700;28;20052;-74
2022/01/13 09:00:00;;;;;;;45.33;12.63;;;;;;;4.48;60.14;103714.94;5003481;28;20026;-74
2022/01/13 09:02:29;;;;;;;33.08;11.27;;;;;;;4.45;60.49;103718.28;5020008;28;20047;-75
2022/01/13 09:04:55;;;;;;;30.05;12.10;;;;;;;4.39;60.29;103716.41;5029741;28;20040;-75
2022/01/13 09:07:21;;;;;;;36.15;11.73;;;;;;;4.22;60.12;103722.75;5041793;28;20036;-73
2022/01/13 09:09:46;;;;;;;34.45;11.77;;;;;;;4.63;59.99;103720.56;5015910;28;20082;-76
2022/01/13 09:12:12;;;;;;;29.83;9.77;;;;;;;4.05;60.72;103723.91;5026202;28;20498;-74
2022/01/13 09:14:38;;;;;;;36.00;12.50;;;;;;;4.39;60.60;103721.59;5036821;28;20576;-74
2022/01/13 09:17:20;;;;;;;33.30;11.18;;;;;;;4.79;59.46;103711.56;5045554;28;20366;-75
2022/01/13 09:19:46;;;;;;;30.25;10.85;;;;;;;4.25;60.97;103720.25;5043598;28;20030;-74
2022/01/13 09:22:12;;;;;;;37.15;11.65;;;;;;;4.30;60.84;103710.94;5033820;28;20045;-75
2022/01/13 09:24:38;;;;;;;37.03;11.90;;;;;;;4.11;61.12;103711.19;5019612;28;20086;-74
2022/01/13 09:27:04;;;;;;;37.63;11.30;;;;;;;4.49;60.26;103720.16;5012645;28;20055;-74
2022/01/13 09:29:30;;;;;;;36.33;11.27;;;;;;;4.91;59.38;103709.38;5048726;28;20047;-74
2022/01/13 09:31:56;;;;;;;36.83;12.25;;;;;;;4.49;60.47;103714.09;5023428;28;20036;-75
2022/01/13 09:34:22;;;;;;;42.22;13.35;;;;;;;4.83;59.73;103703.03;5047977;28;20525;-74
2022/01/13 09:36:50;;;;;;;39.25;14.10;;;;;;;4.35;61.11;103713.69;5015166;28;20376;-74
2022/01/13 09:39:18;;;;;;;45.13;13.75;;;;;;;4.31;60.86;103697.16;5043784;28;20499;-74
2022/01/13 09:41:45;;;;;;;38.25;14.18;;;;;;;4.45;60.73;103694.13;5029095;28;20032;-74
2022/01/13 09:44:13;;;;;;;35.15;12.02;;;;;;;4.20;61.25;103706.28;5046443;28;20041;-74
2022/01/13 09:46:40;;;;;;;36.30;11.90;;;;;;;4.74;60.13;103701.03;5048486;28;20043;-74
2022/01/13 09:49:07;;;;;;;42.63;13.60;;;;;;;4.66;60.27;103697.38;5038501;28;20044;-74
2022/01/13 09:51:37;;;;;;;35.00;13.20;;;;;;;4.55;60.51;103696.16;5040659;28;20028;-74
2022/01/13 09:54:03;;;;;;;33.97;13.55;;;;;;;4.71;59.83;103689.72;5016363;28;20040;-74
2022/01/13 09:56:32;;;;;;;40.53;14.70;;;;;;;4.90;59.59;103698.94;5032406;28;20048;-73
2022/01/13 09:58:58;;;;;;;34.90;12.80;;;;;;;5.07;58.93;103687.34;5032735;28;20044;-73
2022/01/13 10:01:24;;;;;;;34.78;13.32;;;;;;;5.25;58.50;103697.34;5048614;28;20521;-73
2022/01/13 10:03:49;;;;;;;47.40;14.57;;;;;;;4.66;59.65;103689.59;5036249;28;20044;-73
2022/01/13 10:06:19;;;;;;;40.63;13.68;;;;;;;4.89;59.17;103682.53;5038138;28;20063;-74
2022/01/13 10:08:54;;;;;;;45.50;12.98;;;;;;;4.87;59.23;103691.06;5051759;28;20036;-73
2022/01/13 10:11:44;;;;;;;38.88;14.48;;;;;;;5.16;58.81;103685.00;5042753;28;20111;-73
2022/01/13 10:16:55;;;;;;;41.60;13.00;;;;;;;4.78;59.57;103684.75;5035512;28;20123;-74
2022/01/13 10:19:42;;;;;;;38.38;12.60;;;;;;;5.24;58.61;103680.91;5024125;28;20056;-73
2022/01/13 10:22:09;;;;;;;31.17;11.77;;;;;;;4.82;59.04;103675.38;5011051;28;20053;-73
2022/01/13 10:24:37;;;;;;;29.63;12.10;;;;;;;4.86;59.28;103681.53;5054701;28;20029;-73
2022/01/13 10:27:26;;;;;;;29.70;11.88;;;;;;;4.16;61.20;103684.63;5051616;28;20408;-74
2022/01/13 10:29:57;;;;;;;37.85;11.93;;;;;;;4.98;59.42;103677.59;5036947;28;20490;-73
2022/01/13 10:32:36;;;;;;;33.35;13.00;;;;;;;4.96;59.39;103678.38;5035972;28;20415;-73
2022/01/13 10:35:11;;;;;;;47.85;12.75;;;;;;;4.45;60.75;103675.97;5028773;28;20032;-74
2022/01/13 10:37:41;;;;;;;47.50;14.38;;;;;;;4.94;59.56;103669.69;5018420;28;20037;-73
2022/01/13 10:40:13;;;;;;;39.22;12.82;;;;;;;4.74;59.94;103658.72;5033493;28;20110;-73
2022/01/13 10:45:39;;;;;;;35.17;12.40;;;;;;;4.59;59.75;103662.63;5051885;28;20044;-74
2022/01/13 10:48:09;;;;;;;36.92;11.98;;;;;;;4.75;59.26;103653.59;5030892;28;20809;-74
2022/01/13 10:51:04;;;;;;;40.65;12.70;;;;;;;4.08;61.20;103656.72;5029396;28;20036;-76
2022/01/13 10:53:39;;;;;;;38.58;11.70;;;;;;;4.91;59.13;103646.28;5049549;28;20044;-74
2022/01/13 10:56:10;;;;;;;32.35;11.93;;;;;;;5.04;59.34;103643.19;5056011;28;20036;-74
2022/01/13 10:58:40;;;;;;;37.05;11.00;;;;;;;5.54;57.85;103648.84;5043169;28;20049;-74
2022/01/13 11:01:13;;;;;;;28.15;12.15;;;;;;;5.24;58.67;103644.63;5050987;28;20506;-75
2022/01/13 11:03:40;;;;;;;34.88;11.00;;;;;;;5.20;58.45;103631.53;5050426;28;20063;-75
2022/01/13 11:06:08;;;;;;;33.00;11.30;;;;;;;5.10;58.80;103630.41;5035481;28;20028;-74
2022/01/13 11:08:44;;;;;;;28.02;10.52;;;;;;;5.62;57.09;103625.69;5008248;28;20047;-74
2022/01/13 11:11:28;;;;;;;32.83;11.88;;;;;;;5.54;57.09;103633.28;5015404;28;20435;-74
2022/01/13 11:13:57;;;;;;;26.23;10.13;;;;;;;5.84;56.37;103632.28;5015265;28;20040;-75
2022/01/13 11:16:24;;;;;;;29.60;10.65;;;;;;;5.65;57.01;103642.19;5054217;28;20407;-74
2022/01/13 11:18:50;;;;;;;24.40;10.32;;;;;;;5.30;57.76;103637.81;5034107;28;20050;-75
2022/01/13 11:21:16;;;;;;;27.42;10.75;;;;;;;5.81;55.53;103652.97;5029452;28;20033;-74
2022/01/13 11:23:48;;;;;;;24.90;11.15;;;;;;;5.72;56.17;103652.75;5012437;28;20045;-76
2022/01/13 11:26:14;;;;;;;26.65;10.93;;;;;;;5.73;56.26;103654.50;5024507;28;20294;-75
2022/01/13 11:28:40;;;;;;;30.13;10.18;;;;;;;5.61;56.53;103652.47;5035748;28;20047;-74
2022/01/13 11:31:09;;;;;;;31.67;11.23;;;;;;;5.43;56.79;103655.47;5046012;28;20701;-75
2022/01/13 11:33:39;;;;;;;28.98;10.30;;;;;;;5.72;56.14;103658.78;5034413;28;20041;-74
2022/01/13 11:36:08;;;;;;;26.00;10.65;;;;;;;5.19;57.36;103659.19;5053852;28;20094;-75
2022/01/13 11:38:36;;;;;;;23.10;9.60;;;;;;;5.13;56.86;103653.81;5034204;28;20160;-75
2022/01/13 11:41:09;;;;;;;25.15;9.57;;;;;;;5.36;57.04;103659.63;5036910;28;20028;-75
2022/01/13 11:43:40;;;;;;;26.42;10.10;;;;;;;4.95;57.81;103645.53;5014504;28;20048;-75
2022/01/13 11:46:24;;;;;;;24.25;9.32;;;;;;;4.79;58.34;103649.38;5026205;28;20634;-75
2022/01/13 11:49:06;;;;;;;28.10;10.50;;;;;;;4.51;59.10;103648.56;5029752;28;20045;-75